Time;durP1;ratioP1;P1;durP2;ratioP2;P2;SDS_P1;SDS_P2;PMS_P1;PMS_P2;Temp;Humidity;BMP_temperature;BMP_pressure;BME280_temperature;BME280_humidity;BME280_pressure;Samples;Min_cycle;Max_cycle;Signal;HPM_P1;HPM_P2
2023/03/02 00:01:09;;;;;;;15.80;9.40;;;;;;;7.48;62.14;100701.31;10462000;27;96856;-79
2023/03/02 00:06:12;;;;;;;17.13;9.70;;;;;;;7.23;62.91;100704.44;10440450;27;97072;-79
2023/03/02 00:11:17;;;;;;;15.13;9.52;;;;;;;7.11;62.53;100692.47;10419468;28;96619;-79
2023/03/02 00:16:20;;;;;;;14.47;8.50;;;;;;;6.91;63.59;100697.19;10419535;28;97054;-79
2023/03/02 00:21:24;;;;;;;13.18;9.00;;;;;;;6.79;64.80;100702.59;10449824;27;96584;-79
2023/03/02 00:26:28;;;;;;;15.63;9.10;;;;;;;6.98;63.13;100701.41;10426718;28;96651;-79
2023/03/02 00:31:33;;;;;;;12.75;8.23;;;;;;;7.03;62.58;100693.47;10461988;27;97946;-79
2023/03/02 00:36:36;;;;;;;14.68;9.40;;;;;;;6.83;63.85;100702.53;10468146;27;96909;-79
2023/03/02 00:41:41;;;;;;;14.82;8.90;;;;;;;6.71;64.19;100700.09;10443034;27;96733;-79
2023/03/02 00:46:44;;;;;;;15.17;8.77;;;;;;;6.90;63.25;100702.44;10467611;27;96881;-79
2023/03/02 00:51:47;;;;;;;16.80;9.18;;;;;;;6.92;62.85;100695.44;10467696;27;96641;-79
2023/03/02 00:56:52;;;;;;;11.32;8.25;;;;;;;6.64;64.69;100701.09;10448031;27;96761;-79
2023/03/02 01:01:57;;;;;;;15.43;9.43;;;;;;;6.42;66.27;100707.56;10425013;28;96798;-79
2023/03/02 01:07:03;;;;;;;15.55;9.05;;;;;;;6.32;66.19;100713.81;10425429;28;96672;-79
2023/03/02 01:12:10;;;;;;;14.00;8.43;;;;;;;6.49;65.75;100703.97;10425329;27;96581;-79
2023/03/02 01:17:14;;;;;;;11.65;8.18;;;;;;;6.38;65.31;100699.78;10424292;28;96841;-79
2023/03/02 01:22:17;;;;;;;14.63;9.00;;;;;;;6.18;66.48;100707.06;10423739;28;96621;-79
2023/03/02 01:27:22;;;;;;;16.40;9.32;;;;;;;6.09;67.20;100705.44;10424059;27;96553;-79
2023/03/02 01:32:25;;;;;;;14.33;8.90;;;;;;;5.98;68.20;100715.19;10430543;27;98389;-79
2023/03/02 01:37:28;;;;;;;16.20;9.38;;;;;;;6.08;67.15;100716.78;10465848;27;96684;-79
2023/03/02 01:42:38;;;;;;;15.07;9.45;;;;;;;6.07;67.20;100709.84;10463473;27;97730;-79
2023/03/02 01:47:41;;;;;;;14.45;9.30;;;;;;;6.26;65.86;100705.22;10451838;27;98877;-79
2023/03/02 01:52:45;;;;;;;13.57;8.90;;;;;;;6.23;66.29;100700.03;10464248;27;96860;-79
2023/03/02 01:57:52;;;;;;;14.02;8.77;;;;;;;6.15;66.73;100699.28;10465306;27;96797;-79
2023/03/02 02:03:07;;;;;;;12.82;8.90;;;;;;;6.11;66.51;100695.00;10460602;27;96892;-79
2023/03/02 02:08:11;;;;;;;12.10;8.30;;;;;;;5.79;68.10;100692.81;10444119;27;97119;-79
2023/03/02 02:13:15;;;;;;;14.77;8.52;;;;;;;5.64;69.15;100701.72;10460549;27;96719;-79
2023/03/02 02:18:19;;;;;;;14.17;8.73;;;;;;;5.70;68.07;100698.16;10463998;27;96743;-79
2023/03/02 02:23:27;;;;;;;11.60;9.10;;;;;;;5.78;68.03;100696.31;10434141;27;96616;-79
2023/03/02 02:28:36;;;;;;;14.43;8.98;;;;;;;5.59;68.37;100700.03;10446780;27;96791;-79
2023/03/02 02:33:42;;;;;;;15.30;9.07;;;;;;;5.50;68.79;100708.00;10461195;27;96786;-79
2023/03/02 02:38:47;;;;;;;13.30;9.02;;;;;;;5.46;68.84;100701.94;10462170;27;96828;-79
2023/03/02 02:43:52;;;;;;;14.45;9.25;;;;;;;5.52;69.21;100701.00;10456003;27;96911;-79
2023/03/02 02:48:55;;;;;;;13.63;8.53;;;;;;;5.57;68.55;100697.44;10461992;27;98345;-79
2023/03/02 02:54:00;;;;;;;11.57;8.35;;;;;;;5.46;69.49;100698.47;10461337;27;97545;-79
2023/03/02 02:59:13;;;;;;;16.20;9.55;;;;;;;5.50;69.15;100695.78;10459432;27;98886;-79
2023/03/02 03:04:20;;;;;;;12.90;8.55;;;;;;;5.47;68.38;100695.84;10460681;27;98523;-79
2023/03/02 03:09:24;;;;;;;13.05;8.15;;;;;;;5.50;68.87;100694.94;10463463;27;96785;-79
2023/03/02 03:14:34;;;;;;;15.10;8.80;;;;;;;5.31;69.56;100683.00;10460419;27;96836;-79
2023/03/02 03:19:38;;;;;;;11.40;7.55;;;;;;;5.21;69.07;100689.19;10461378;27;96837;-79
2023/03/02 03:24:43;;;;;;;16.05;8.93;;;;;;;4.99;70.44;100690.28;10461571;27;96790;-79
2023/03/02 03:29:48;;;;;;;13.57;8.52;;;;;;;4.89;71.43;100684.31;10458946;27;96743;-79
2023/03/02 03:34:51;;;;;;;12.70;8.63;;;;;;;4.95;70.74;100689.47;10458264;27;96720;-79
2023/03/02 03:39:54;;;;;;;13.80;8.32;;;;;;;4.92;70.75;100686.03;10460077;27;99912;-79
2023/03/02 03:44:59;;;;;;;15.77;9.00;;;;;;;4.84;71.16;100686.13;10455367;27;97532;-79
2023/03/02 03:50:03;;;;;;;11.10;7.38;;;;;;;5.01;70.33;100684.19;10456342;27;100081;-79
2023/03/02 03:55:07;;;;;;;10.75;7.75;;;;;;;5.21;69.51;100683.97;10458628;27;96795;-79
2023/03/02 04:00:17;;;;;;;10.68;7.55;;;;;;;5.11;70.22;100690.16;10465096;27;97423;-79
2023/03/02 04:05:20;;;;;;;9.98;6.93;;;;;;;5.21;69.54;100687.44;10461631;27;97116;-79
2023/03/02 04:10:23;;;;;;;12.52;7.88;;;;;;;5.38;68.94;100701.16;10467849;27;96852;-79
2023/03/02 04:15:28;;;;;;;12.98;8.13;;;;;;;5.07;70.24;100704.97;10464364;27;98724;-79
2023/03/02 04:20:32;;;;;;;11.97;7.27;;;;;;;5.16;69.24;100710.09;10453230;27;96990;-79
2023/03/02 04:25:35;;;;;;;14.98;7.70;;;;;;;5.22;69.12;100715.28;10432955;27;97039;-79
2023/03/02 04:30:39;;;;;;;12.73;8.15;;;;;;;5.01;69.92;100720.72;10467393;27;98912;-79
2023/03/02 04:35:42;;;;;;;11.73;7.90;;;;;;;4.87;70.52;100719.09;10465023;27;96685;-79
2023/03/02 04:40:46;;;;;;;10.00;7.95;;;;;;;5.01;69.80;100720.72;10431629;27;96987;-79
2023/03/02 04:45:50;;;;;;;9.93;7.53;;;;;;;5.05;69.24;100727.59;10463243;27;98201;-79
2023/03/02 04:50:53;;;;;;;11.60;7.90;;;;;;;5.01;69.35;100740.69;10462179;27;98636;-79
2023/03/02 04:55:57;;;;;;;13.75;8.32;;;;;;;5.06;69.49;100749.34;10445593;27;98771;-78
2023/03/02 05:01:02;;;;;;;11.80;7.03;;;;;;;5.13;68.83;100751.88;10465754;27;96742;-79
2023/03/02 05:06:05;;;;;;;10.95;7.43;;;;;;;5.22;68.68;100756.16;10466117;27;96855;-79
2023/03/02 05:11:10;;;;;;;11.35;7.32;;;;;;;5.08;68.82;100761.50;10457937;27;97095;-79
2023/03/02 05:16:15;;;;;;;11.60;8.10;;;;;;;5.00;69.51;100762.44;10456608;27;96612;-79
2023/03/02 05:21:19;;;;;;;10.83;7.63;;;;;;;4.98;68.92;100770.25;10466580;27;98803;-79
2023/03/02 05:26:22;;;;;;;13.80;8.50;;;;;;;4.66;71.29;100776.63;10465105;27;98721;-79
2023/03/02 05:31:30;;;;;;;16.30;7.40;;;;;;;4.97;69.51;100780.72;10437244;27;96719;-79
2023/03/02 05:36:33;;;;;;;8.65;6.28;;;;;;;5.09;68.94;100778.88;10463499;27;96900;-79
2023/03/02 05:41:38;;;;;;;12.23;7.22;;;;;;;5.09;68.64;100785.81;10437141;27;96745;-79
2023/03/02 05:46:42;;;;;;;10.07;6.80;;;;;;;5.26;67.80;100787.38;10449454;27;96881;-79
2023/03/02 05:51:45;;;;;;;10.57;6.80;;;;;;;5.06;68.97;100788.47;10465680;27;96688;-79
2023/03/02 05:56:49;;;;;;;9.95;7.32;;;;;;;5.04;68.46;100792.81;10463368;27;96761;-79
2023/03/02 06:01:57;;;;;;;10.20;6.82;;;;;;;5.00;68.51;100797.19;10453612;27;96789;-79
2023/03/02 06:07:01;;;;;;;11.25;7.55;;;;;;;4.59;70.24;100803.59;10422989;28;96709;-79
2023/03/02 06:12:04;;;;;;;11.48;7.43;;;;;;;4.39;71.70;100806.34;10439170;27;96722;-79
2023/03/02 06:17:09;;;;;;;9.23;6.55;;;;;;;4.59;69.73;100811.41;10463178;27;96682;-79
2023/03/02 06:22:13;;;;;;;10.65;7.55;;;;;;;4.60;70.89;100815.78;10449905;27;97382;-79
2023/03/02 06:27:16;;;;;;;9.35;6.45;;;;;;;4.42;70.89;100817.63;10436544;27;96714;-79
2023/03/02 06:32:21;;;;;;;8.65;5.97;;;;;;;4.61;69.33;100834.00;10447779;27;96782;-79
2023/03/02 06:37:24;;;;;;;8.63;5.63;;;;;;;4.72;68.97;100831.31;10434797;27;96724;-79
2023/03/02 06:42:28;;;;;;;9.90;6.05;;;;;;;4.79;68.72;100827.81;10461621;27;97011;-78
2023/03/02 06:47:33;;;;;;;8.07;6.03;;;;;;;4.80;68.10;100834.72;10455805;27;96849;-78
2023/03/02 06:52:36;;;;;;;7.22;5.47;;;;;;;4.80;68.02;100846.03;10446697;27;96693;-79
2023/03/02 06:57:40;;;;;;;9.07;5.97;;;;;;;4.84;67.97;100852.97;10460295;27;96919;-79
2023/03/02 07:02:44;;;;;;;10.13;5.40;;;;;;;4.87;67.82;100862.50;10458984;27;96829;-79
2023/03/02 07:07:48;;;;;;;8.53;5.80;;;;;;;4.90;67.57;100862.47;10459937;27;97177;-79
2023/03/02 07:12:52;;;;;;;8.38;5.47;;;;;;;4.91;67.44;100880.75;10452858;27;96812;-79
2023/03/02 07:17:57;;;;;;;8.68;5.30;;;;;;;4.89;67.28;100876.38;10460330;27;96869;-79
2023/03/02 07:23:00;;;;;;;8.37;5.60;;;;;;;4.97;67.05;100888.50;10460654;27;96810;-79
2023/03/02 07:28:04;;;;;;;10.68;6.00;;;;;;;5.02;66.89;100898.88;10441322;27;96742;-79
2023/03/02 07:33:08;;;;;;;7.95;4.65;;;;;;;5.06;66.75;100911.03;10461662;27;98260;-79
2023/03/02 07:38:12;;;;;;;7.17;5.10;;;;;;;5.02;66.72;100918.00;10466054;27;97135;-78
2023/03/02 07:43:15;;;;;;;8.90;4.97;;;;;;;5.06;66.52;100921.47;10465196;27;96790;-79
2023/03/02 07:48:22;;;;;;;8.68;4.38;;;;;;;5.10;66.34;100929.28;10468660;27;97798;-79
2023/03/02 07:53:25;;;;;;;6.35;4.50;;;;;;;5.14;66.30;100932.75;10468110;27;96618;-79
2023/03/02 07:58:28;;;;;;;6.32;4.25;;;;;;;6.39;63.74;100937.63;10468440;27;96765;-79
2023/03/02 08:03:33;;;;;;;6.32;4.18;;;;;;;8.07;60.17;100937.66;10465699;27;98719;-79
2023/03/02 08:08:37;;;;;;;6.30;3.90;;;;;;;9.66;56.90;100943.81;10464766;27;98621;-79
2023/03/02 08:13:41;;;;;;;7.13;4.30;;;;;;;10.00;55.75;100947.31;10464759;27;96901;-79
2023/03/02 08:18:45;;;;;;;6.10;3.80;;;;;;;9.99;55.99;100964.84;10455088;27;99644;-79
2023/03/02 08:23:49;;;;;;;4.75;3.55;;;;;;;10.48;55.85;100968.78;10460507;27;96880;-79
2023/03/02 08:28:52;;;;;;;4.53;3.10;;;;;;;12.28;50.58;100973.59;10454406;27;98261;-79
2023/03/02 08:33:58;;;;;;;5.00;3.25;;;;;;;13.16;47.18;100981.78;10464478;27;96678;-78
2023/03/02 08:39:02;;;;;;;4.70;3.40;;;;;;;12.54;45.31;100983.22;10438838;27;96706;-78
2023/03/02 08:44:06;;;;;;;5.50;3.58;;;;;;;13.08;44.00;100989.16;10467777;27;96697;-79
2023/03/02 08:49:11;;;;;;;6.40;4.10;;;;;;;13.54;42.62;100977.63;10456809;27;98716;-84
2023/03/02 08:54:15;;;;;;;4.95;3.70;;;;;;;13.74;41.78;100974.19;10453234;27;99082;-86
2023/03/02 08:59:19;;;;;;;6.13;3.83;;;;;;;14.15;40.81;100971.56;10449279;27;96630;-84
2023/03/02 09:04:23;;;;;;;5.00;3.30;;;;;;;13.96;40.36;100973.22;10463692;27;96822;-84
2023/03/02 09:09:26;;;;;;;;;;;;;;;13.40;40.59;100967.59;10456826;27;96816;-85
2023/03/02 09:14:30;;;;;;;5.18;3.05;;;;;;;13.57;40.21;100973.06;10459623;27;97067;-80
2023/03/02 09:19:40;;;;;;;4.28;3.28;;;;;;;13.53;40.38;100971.50;10453684;27;98634;-81
2023/03/02 09:24:46;;;;;;;4.60;3.03;;;;;;;11.87;43.78;100968.03;10454272;27;97080;-80
2023/03/02 09:29:49;;;;;;;5.07;3.03;;;;;;;10.82;45.74;100970.41;10454879;27;100346;-79
2023/03/02 09:34:54;;;;;;;4.93;2.90;;;;;;;10.25;47.64;100970.28;10455544;27;96805;-80
2023/03/02 09:39:57;;;;;;;6.80;3.42;;;;;;;10.03;48.53;100977.03;10440087;27;99063;-78
2023/03/02 09:45:15;;;;;;;9.52;3.65;;;;;;;9.82;48.69;100958.31;10437729;27;97048;-78
2023/03/02 09:50:40;;;;;;;4.60;2.92;;;;;;;10.60;47.71;100971.09;10452366;27;96579;-79
2023/03/02 09:55:46;;;;;;;3.77;2.37;;;;;;;11.79;44.59;100975.31;10462047;27;97442;-79
2023/03/02 10:00:50;;;;;;;3.70;2.22;;;;;;;13.58;41.06;100974.81;10460626;27;96684;-79
2023/03/02 10:05:56;;;;;;;3.35;2.30;;;;;;;13.55;39.30;100972.25;10451439;27;96858;-79
2023/03/02 10:11:06;;;;;;;2.90;2.35;;;;;;;13.99;38.47;100974.88;10461048;27;96639;-79
2023/03/02 10:16:19;;;;;;;5.00;2.50;;;;;;;14.27;37.38;100970.16;10457706;27;97190;-79
2023/03/02 10:21:29;;;;;;;3.10;2.22;;;;;;;15.13;35.98;100961.78;10463727;27;96930;-79
2023/03/02 10:26:39;;;;;;;3.70;2.90;;;;;;;15.55;35.32;100964.22;10464096;27;97799;-79
2023/03/02 10:31:44;;;;;;;4.60;2.75;;;;;;;15.97;34.73;100958.56;10450210;27;97044;-79
2023/03/02 10:36:49;;;;;;;4.65;3.05;;;;;;;15.45;34.73;100958.50;10456702;27;97916;-79
2023/03/02 10:41:53;;;;;;;;;;;;;;;15.44;34.96;100953.28;10455708;27;97422;-79
2023/03/02 10:46:58;;;;;;;4.03;2.50;;;;;;;15.77;34.86;100956.91;10444104;27;97190;-81
2023/03/02 10:52:05;;;;;;;3.83;2.70;;;;;;;16.33;33.58;100946.06;10432343;27;96762;-80
2023/03/02 10:57:28;;;;;;;3.60;2.38;;;;;;;16.35;32.81;100949.50;10458175;27;97060;-79
2023/03/02 11:02:34;;;;;;;2.80;2.30;;;;;;;16.48;33.38;100950.63;10447816;27;98790;-78
2023/03/02 11:07:39;;;;;;;4.43;2.38;;;;;;;16.01;33.08;100952.19;10463129;27;97336;-82
2023/03/02 11:12:46;;;;;;;5.15;2.58;;;;;;;17.43;31.95;100959.47;10453851;27;99254;-79
2023/03/02 11:17:56;;;;;;;3.50;2.40;;;;;;;16.93;32.15;100948.13;10434029;27;98400;-79
2023/03/02 11:23:14;;;;;;;3.30;2.30;;;;;;;17.30;30.77;100942.50;10454153;27;96931;-78
2023/03/02 11:28:34;;;;;;;2.88;1.92;;;;;;;17.73;30.78;100940.94;10438930;27;96759;-78
2023/03/02 11:33:43;;;;;;;2.22;2.00;;;;;;;17.85;30.80;100938.44;10455817;27;97339;-78
2023/03/02 11:38:52;;;;;;;3.35;2.22;;;;;;;17.81;30.01;100933.38;10461975;27;96613;-78
2023/03/02 11:43:58;;;;;;;2.70;2.05;;;;;;;18.02;30.21;100924.97;10454280;27;96869;-78
2023/03/02 11:49:06;;;;;;;4.18;2.38;;;;;;;18.20;29.85;100931.00;10454818;27;97176;-78
2023/03/02 11:54:29;;;;;;;2.58;2.05;;;;;;;18.58;28.74;100918.91;10442184;27;99676;-77
2023/03/02 11:59:34;;;;;;;4.88;2.22;;;;;;;17.70;29.53;100915.38;10447066;27;97143;-79
2023/03/02 12:04:39;;;;;;;3.17;1.90;;;;;;;19.11;28.27;100916.38;10453571;27;97851;-79
2023/03/02 12:09:43;;;;;;;3.25;2.10;;;;;;;18.52;28.87;100907.78;10462324;27;96620;-79
2023/03/02 12:14:46;;;;;;;2.67;1.75;;;;;;;17.90;28.92;100903.56;10454061;27;99026;-79
2023/03/02 12:19:52;;;;;;;2.42;1.75;;;;;;;18.91;28.48;100902.59;10461789;27;96811;-79
2023/03/02 12:25:07;;;;;;;3.05;1.80;;;;;;;19.77;26.59;100892.44;10467872;27;96790;-78
2023/03/02 12:30:24;;;;;;;2.53;1.65;;;;;;;19.77;26.92;100884.41;10464642;27;97866;-79
2023/03/02 12:35:31;;;;;;;2.58;1.63;;;;;;;20.64;26.02;100880.13;10436757;27;96984;-79
2023/03/02 12:40:53;;;;;;;1.88;1.40;;;;;;;21.15;25.54;100884.41;10426096;28;96719;-79
2023/03/02 12:46:35;;;;;;;1.98;1.50;;;;;;;20.63;25.36;100870.41;10455099;27;96911;-80
2023/03/02 12:51:51;;;;;;;2.25;1.40;;;;;;;20.12;26.12;100858.84;10441786;27;96628;-79
2023/03/02 12:57:07;;;;;;;2.05;1.45;;;;;;;20.36;26.08;100857.16;10429527;27;98909;-80
2023/03/02 13:02:16;;;;;;;2.13;1.38;;;;;;;20.34;25.67;100845.69;10433600;27;96751;-79
2023/03/02 13:07:23;;;;;;;1.50;1.23;;;;;;;19.57;26.20;100844.84;10442111;27;96744;-80
2023/03/02 13:12:29;;;;;;;2.75;1.40;;;;;;;19.47;26.77;100846.44;10461938;27;97284;-80
2023/03/02 13:17:33;;;;;;;1.95;1.05;;;;;;;18.77;26.87;100834.16;10444921;27;98493;-79
2023/03/02 13:22:36;;;;;;;1.48;1.23;;;;;;;19.18;26.26;100818.13;10434185;27;96783;-79
2023/03/02 13:27:52;;;;;;;3.33;1.40;;;;;;;19.25;25.83;100808.72;10429165;27;96873;-82
2023/03/02 13:33:01;;;;;;;1.85;1.27;;;;;;;20.17;25.28;100800.56;10466125;27;96770;-79
2023/03/02 13:38:13;;;;;;;2.50;1.63;;;;;;;19.80;25.77;100787.22;10462827;27;96899;-79
2023/03/02 13:43:23;;;;;;;3.28;1.70;;;;;;;19.59;25.50;100796.69;10449400;27;97798;-81
2023/03/02 13:48:28;;;;;;;3.80;1.60;;;;;;;19.89;25.41;100789.25;10454255;27;97755;-80
2023/03/02 13:53:36;;;;;;;2.25;1.67;;;;;;;20.20;25.02;100781.63;10441069;27;97274;-79
2023/03/02 13:58:41;;;;;;;3.35;1.80;;;;;;;19.62;26.13;100772.44;10444616;27;98834;-79
2023/03/02 14:03:44;;;;;;;3.20;2.05;;;;;;;20.37;25.33;100780.50;10455267;27;96974;-82
2023/03/02 14:08:48;;;;;;;3.77;2.03;;;;;;;20.13;25.56;100775.00;10447409;27;97381;-82
2023/03/02 14:13:54;;;;;;;2.53;2.10;;;;;;;19.36;25.98;100758.19;10423734;27;96732;-82
2023/03/02 14:18:58;;;;;;;3.13;2.03;;;;;;;19.66;26.33;100753.47;10464369;27;96694;-82
2023/03/02 14:24:01;;;;;;;4.50;3.47;;;;;;;19.42;26.53;100755.16;10464679;27;96806;-83
2023/03/02 14:29:15;;;;;;;4.28;2.50;;;;;;;19.84;25.73;100749.50;10464646;27;96762;-82
2023/03/02 14:34:18;;;;;;;3.03;2.20;;;;;;;19.97;25.70;100750.38;10433925;27;96619;-82
2023/03/02 14:39:25;;;;;;;3.07;2.43;;;;;;;20.54;25.31;100748.03;10421642;28;96544;-82
2023/03/02 14:44:29;;;;;;;4.05;1.98;;;;;;;20.34;25.67;100741.44;10440832;27;96908;-83
2023/03/02 14:49:33;;;;;;;3.20;2.08;;;;;;;20.68;24.58;100736.31;10460929;27;97951;-82
2023/03/02 14:54:40;;;;;;;2.63;2.03;;;;;;;20.59;24.93;100729.84;10463838;27;96830;-83
2023/03/02 14:59:45;;;;;;;3.53;2.20;;;;;;;20.92;24.35;100730.03;10462710;27;96830;-81
2023/03/02 15:04:51;;;;;;;3.47;2.50;;;;;;;20.55;24.84;100719.50;10461333;27;96779;-81
2023/03/02 15:09:57;;;;;;;3.60;2.70;;;;;;;20.97;24.47;100727.00;10449265;27;97755;-82
2023/03/02 15:15:02;;;;;;;3.47;2.63;;;;;;;20.73;25.09;100720.78;10439452;27;96922;-83
2023/03/02 15:20:06;;;;;;;3.72;2.47;;;;;;;20.60;24.81;100718.16;10453070;27;97103;-82
2023/03/02 15:25:10;;;;;;;2.97;2.60;;;;;;;20.63;24.46;100711.75;10457854;27;96890;-82
2023/03/02 15:30:15;;;;;;;3.57;2.30;;;;;;;20.61;24.76;100706.50;10462358;27;97005;-82
2023/03/02 15:35:18;;;;;;;3.40;2.50;;;;;;;19.99;25.37;100703.03;10462486;27;96821;-82
2023/03/02 15:40:21;;;;;;;3.90;2.70;;;;;;;20.08;25.49;100696.16;10434874;27;97618;-82
2023/03/02 15:45:27;;;;;;;3.65;2.90;;;;;;;20.32;25.11;100700.59;10446404;27;97717;-82
2023/03/02 15:50:30;;;;;;;4.13;2.58;;;;;;;19.98;25.37;100698.63;10461701;27;96741;-82
2023/03/02 15:55:34;;;;;;;3.63;2.45;;;;;;;19.51;25.82;100695.75;10469744;27;96661;-82
2023/03/02 16:00:38;;;;;;;4.40;3.13;;;;;;;19.68;25.67;100694.59;10428658;27;97053;-82
2023/03/02 16:05:42;;;;;;;3.70;2.80;;;;;;;19.36;25.88;100686.13;10427181;28;96729;-82
2023/03/02 16:10:56;;;;;;;4.18;2.70;;;;;;;19.29;25.82;100695.50;10452891;27;96733;-82
2023/03/02 16:16:03;;;;;;;3.83;2.60;;;;;;;19.15;26.00;100687.56;10453567;27;98902;-81
2023/03/02 16:21:12;;;;;;;5.90;3.10;;;;;;;19.10;26.11;100682.56;10468999;27;96621;-81
2023/03/02 16:26:17;;;;;;;4.00;2.58;;;;;;;19.02;26.08;100681.38;10469871;27;96765;-82
2023/03/02 16:31:25;;;;;;;3.90;2.65;;;;;;;18.58;26.56;100678.13;10454674;27;96787;-81
2023/03/02 16:36:28;;;;;;;4.72;2.80;;;;;;;18.61;26.82;100683.28;10426499;28;97114;-82
2023/03/02 16:41:31;;;;;;;3.63;2.92;;;;;;;18.18;26.51;100685.16;10440745;27;96812;-82
2023/03/02 16:46:38;;;;;;;4.22;2.90;;;;;;;18.00;26.98;100681.84;10466170;27;97256;-81
2023/03/02 16:51:42;;;;;;;3.65;2.70;;;;;;;17.43;27.48;100687.25;10443854;27;96832;-82
2023/03/02 16:56:46;;;;;;;5.65;3.33;;;;;;;17.18;28.21;100679.88;10468224;27;96769;-81
2023/03/02 17:01:51;;;;;;;4.87;3.13;;;;;;;16.96;28.29;100690.94;10465912;27;96818;-82
2023/03/02 17:06:54;;;;;;;5.38;3.47;;;;;;;16.92;28.76;100693.88;10440223;27;97165;-82
2023/03/02 17:12:03;;;;;;;6.05;3.50;;;;;;;16.86;29.03;100697.72;10425134;27;96658;-81
2023/03/02 17:17:08;;;;;;;6.20;3.38;;;;;;;16.77;29.56;100708.06;10426666;27;97277;-81
2023/03/02 17:22:11;;;;;;;5.53;3.75;;;;;;;16.69;29.33;100715.59;10451357;27;97097;-82
2023/03/02 17:27:14;;;;;;;40.80;22.80;;;;;;;16.51;30.11;100717.53;10424437;28;96901;-81
2023/03/02 17:32:29;;;;;;;30.77;17.80;;;;;;;16.41;30.03;100720.78;10453568;27;96938;-82
2023/03/02 17:37:32;;;;;;;20.45;10.60;;;;;;;16.28;31.29;100735.63;10455696;27;96871;-82
2023/03/02 17:42:35;;;;;;;14.70;8.45;;;;;;;16.11;32.60;100733.91;10451004;27;97830;-82
2023/03/02 17:47:42;;;;;;;14.40;9.57;;;;;;;15.93;33.91;100750.00;10465708;27;96866;-82
2023/03/02 17:52:45;;;;;;;23.25;15.20;;;;;;;15.54;34.76;100756.47;10465921;27;96716;-81
2023/03/02 17:57:49;;;;;;;24.50;16.52;;;;;;;14.98;36.51;100766.38;10439355;27;96655;-80
2023/03/02 18:02:53;;;;;;;15.73;9.38;;;;;;;14.72;36.92;100767.66;10431611;27;96790;-81
2023/03/02 18:07:56;;;;;;;14.32;8.63;;;;;;;14.42;38.52;100769.09;10456228;27;96830;-81
2023/03/02 18:13:00;;;;;;;17.00;10.30;;;;;;;14.20;39.37;100778.13;10453807;27;96787;-80
2023/03/02 18:18:05;;;;;;;12.73;6.32;;;;;;;14.01;39.87;100786.00;10436159;27;96871;-81
2023/03/02 18:23:08;;;;;;;;;;;;;;;13.76;42.12;100789.81;10464508;27;97227;-81
2023/03/02 18:28:11;;;;;;;9.95;6.40;;;;;;;13.69;40.78;100803.31;10463499;27;96941;-81
2023/03/02 18:33:15;;;;;;;9.98;6.22;;;;;;;13.47;42.49;100810.44;10451462;27;96794;-81
2023/03/02 18:38:19;;;;;;;10.00;6.40;;;;;;;13.45;42.81;100809.66;10453122;27;96780;-82
2023/03/02 18:43:22;;;;;;;13.38;7.40;;;;;;;13.28;43.14;100816.56;10458129;27;96938;-81
2023/03/02 18:48:26;;;;;;;15.35;7.45;;;;;;;13.00;44.66;100824.75;10451393;27;96845;-81
2023/03/02 18:53:30;;;;;;;13.63;8.27;;;;;;;12.96;44.57;100831.13;10450446;27;97126;-81
2023/03/02 18:58:33;;;;;;;16.60;8.38;;;;;;;12.76;45.67;100843.38;10451691;27;96857;-82
2023/03/02 19:03:38;;;;;;;15.48;7.93;;;;;;;12.63;46.50;100850.00;10448991;27;97378;-81
2023/03/02 19:08:42;;;;;;;11.88;7.63;;;;;;;12.48;46.79;100854.97;10447451;27;97433;-81
2023/03/02 19:13:45;;;;;;;15.57;8.90;;;;;;;12.41;46.53;100855.25;10454574;27;97661;-80
2023/03/02 19:18:50;;;;;;;18.67;9.57;;;;;;;12.17;47.89;100869.34;10451685;27;96823;-80
2023/03/02 19:23:53;;;;;;;13.00;9.27;;;;;;;12.08;48.27;100878.44;10421746;27;96595;-80
2023/03/02 19:28:56;;;;;;;16.25;9.88;;;;;;;11.99;48.30;100878.78;10422680;27;96686;-82
2023/03/02 19:34:01;;;;;;;15.40;10.05;;;;;;;11.80;48.92;100876.84;10462527;27;96758;-82
2023/03/02 19:39:04;;;;;;;15.30;10.32;;;;;;;11.74;48.32;100888.47;10442440;27;97628;-84
2023/03/02 19:44:07;;;;;;;18.55;10.80;;;;;;;11.54;49.86;100885.66;10457753;27;96811;-83
2023/03/02 19:49:12;;;;;;;17.48;10.45;;;;;;;11.51;49.56;100885.72;10459398;27;97067;-80
2023/03/02 19:54:15;;;;;;;22.53;12.30;;;;;;;11.42;49.46;100883.41;10456939;27;97414;-79
2023/03/02 19:59:18;;;;;;;19.75;11.82;;;;;;;11.31;49.81;100894.31;10451795;27;97629;-80
2023/03/02 20:04:22;;;;;;;18.73;12.90;;;;;;;11.42;50.40;100908.91;10446715;27;99000;-81
2023/03/02 20:09:26;;;;;;;22.73;13.33;;;;;;;11.05;50.44;100903.91;10453260;27;96934;-80
2023/03/02 20:14:30;;;;;;;21.13;13.27;;;;;;;10.69;51.70;100910.28;10441396;27;98431;-82
2023/03/02 20:19:37;;;;;;;22.20;13.73;;;;;;;10.70;51.11;100910.25;10458575;27;96804;-80
2023/03/02 20:24:41;;;;;;;19.73;12.53;;;;;;;10.65;52.63;100916.53;10448426;27;99070;-81
2023/03/02 20:29:44;;;;;;;28.80;18.30;;;;;;;10.45;52.71;100921.53;10454386;27;96970;-86
2023/03/02 20:34:49;;;;;;;24.85;15.93;;;;;;;10.29;53.12;100921.09;10444735;27;96873;-83
2023/03/02 20:39:53;;;;;;;18.87;14.47;;;;;;;10.02;53.87;100933.22;10456596;27;98601;-83
2023/03/02 20:44:56;;;;;;;20.70;13.77;;;;;;;9.87;54.65;100938.00;10453574;27;99247;-83
2023/03/02 20:50:01;;;;;;;19.38;12.38;;;;;;;9.81;54.64;100946.06;10456895;27;98546;-83
2023/03/02 20:55:05;;;;;;;19.55;13.18;;;;;;;9.92;54.69;100949.28;10459354;27;96826;-83
2023/03/02 21:00:14;;;;;;;23.63;15.57;;;;;;;9.98;54.26;100949.13;10458527;27;96770;-83
2023/03/02 21:05:20;;;;;;;28.38;17.20;;;;;;;9.88;54.94;100961.63;10453892;27;98544;-82
2023/03/02 21:10:26;;;;;;;25.55;17.95;;;;;;;10.12;54.46;100968.88;10455256;27;97439;-84
2023/03/02 21:15:30;;;;;;;28.88;17.55;;;;;;;10.13;55.10;100975.88;10457953;27;98746;-83
2023/03/02 21:20:35;;;;;;;27.40;17.42;;;;;;;9.78;55.36;100978.53;10454064;27;97118;-83
2023/03/02 21:25:39;;;;;;;29.27;19.05;;;;;;;9.66;55.66;100985.84;10450720;27;97835;-83
2023/03/02 21:30:45;;;;;;;;;;;;;;;9.91;56.59;100987.00;10456081;27;96856;-83
2023/03/02 21:35:51;;;;;;;32.53;20.23;;;;;;;9.71;54.93;100990.09;10451224;27;98321;-83
2023/03/02 21:40:55;;;;;;;37.77;23.30;;;;;;;9.82;55.45;100982.81;10458221;27;97347;-84
2023/03/02 21:46:00;;;;;;;39.20;24.13;;;;;;;9.90;55.21;100986.13;10451166;27;96977;-84
2023/03/02 21:51:05;;;;;;;35.70;23.63;;;;;;;9.97;55.16;100990.31;10453429;27;96729;-84
2023/03/02 21:56:10;;;;;;;30.08;21.55;;;;;;;10.01;54.48;100996.38;10438810;27;98864;-84
2023/03/02 22:01:14;;;;;;;36.47;23.33;;;;;;;9.99;54.74;100996.41;10456319;27;97413;-84
2023/03/02 22:06:20;;;;;;;29.60;20.95;;;;;;;9.90;54.96;100994.00;10439745;27;96865;-84
2023/03/02 22:11:25;;;;;;;31.70;20.75;;;;;;;9.47;56.25;101000.31;10454458;27;96706;-83
2023/03/02 22:16:32;;;;;;;30.77;19.73;;;;;;;9.17;56.74;101007.13;10457069;27;98840;-80
2023/03/02 22:21:38;;;;;;;30.70;19.33;;;;;;;8.89;57.54;101014.72;10461419;27;96982;-83
2023/03/02 22:26:44;;;;;;;28.63;20.55;;;;;;;8.70;58.10;101015.13;10455015;27;99309;-80
2023/03/02 22:31:56;;;;;;;28.23;19.42;;;;;;;8.72;57.88;101019.44;10462589;27;97034;-79
2023/03/02 22:37:11;;;;;;;30.33;20.10;;;;;;;8.32;58.65;101026.34;10464602;27;96780;-81
2023/03/02 22:42:16;;;;;;;26.83;18.40;;;;;;;8.69;58.06;101030.00;10463574;27;96563;-80
2023/03/02 22:47:20;;;;;;;33.90;20.23;;;;;;;9.04;57.43;101032.78;10450333;27;97085;-80
2023/03/02 22:52:32;;;;;;;28.00;18.75;;;;;;;8.97;57.55;101030.28;10458369;27;96896;-78
2023/03/02 22:57:36;;;;;;;25.83;18.48;;;;;;;9.10;57.47;101029.16;10457827;27;97835;-81
2023/03/02 23:02:43;;;;;;;28.85;19.00;;;;;;;8.99;57.56;101037.25;10446288;27;96886;-81
2023/03/02 23:07:48;;;;;;;29.75;19.52;;;;;;;8.55;58.76;101039.03;10459235;27;96922;-80
2023/03/02 23:12:51;;;;;;;29.25;19.67;;;;;;;8.68;58.56;101027.41;10464496;27;97181;-79
2023/03/02 23:17:57;;;;;;;29.77;19.45;;;;;;;8.84;57.54;101034.91;10460016;27;96860;-81
2023/03/02 23:23:02;;;;;;;28.80;17.85;;;;;;;8.76;58.31;101038.59;10420564;28;96601;-81